Time;durP1;ratioP1;P1;durP2;ratioP2;P2;SDS_P1;SDS_P2;PMS_P1;PMS_P2;Temp;Humidity;BMP_temperature;BMP_pressure;BME280_temperature;BME280_humidity;BME280_pressure;Samples;Min_cycle;Max_cycle;Signal;HPM_P1;HPM_P2
2024/04/18 00:01:45;;;;;;;1.80;1.60;;;;;;;;;;5477886;26;19998;-67
2024/04/18 00:04:12;;;;;;;1.35;1.25;;;;;;;;;;5470528;26;20017;-67
2024/04/18 00:06:43;;;;;;;1.52;1.40;;;;;;;;;;5472299;26;20006;-68
2024/04/18 00:09:10;;;;;;;1.95;1.55;;;;;;;;;;5480551;26;20006;-67
2024/04/18 00:11:40;;;;;;;1.77;1.65;;;;;;;;;;5481817;26;20002;-67
2024/04/18 00:14:14;;;;;;;2.60;1.80;;;;;;;;;;5483508;26;20484;-67
2024/04/18 00:16:44;;;;;;;3.42;1.52;;;;;;;;;;5488951;26;19998;-67
2024/04/18 00:19:12;;;;;;;1.50;1.40;;;;;;;;;;5489937;26;20074;-68
2024/04/18 00:21:42;;;;;;;1.75;1.30;;;;;;;;;;5493063;26;20059;-67
2024/04/18 00:24:10;;;;;;;2.20;1.60;;;;;;;;;;5479183;26;20518;-67
2024/04/18 00:26:40;;;;;;;1.63;1.27;;;;;;;;;;5492182;26;20070;-67
2024/04/18 00:29:07;;;;;;;2.08;1.42;;;;;;;;;;5483374;26;20003;-68
2024/04/18 00:31:40;;;;;;;1.65;1.48;;;;;;;;;;5485607;26;19998;-68
2024/04/18 00:34:08;;;;;;;1.45;1.35;;;;;;;;;;5483800;26;20061;-68
2024/04/18 00:36:38;;;;;;;2.45;1.67;;;;;;;;;;5485328;26;19998;-67
2024/04/18 00:39:05;;;;;;;1.70;1.33;;;;;;;;;;5489141;26;20529;-67
2024/04/18 00:41:35;;;;;;;1.92;1.73;;;;;;;;;;5492415;26;20016;-70
2024/04/18 00:44:03;;;;;;;2.38;1.75;;;;;;;;;;5486878;26;20001;-68
2024/04/18 00:46:33;;;;;;;3.33;1.75;;;;;;;;;;5478640;26;19995;-68
2024/04/18 00:49:04;;;;;;;2.53;1.90;;;;;;;;;;5485263;26;20052;-67
2024/04/18 00:51:34;;;;;;;2.47;1.52;;;;;;;;;;5484931;26;20034;-67
2024/04/18 00:54:03;;;;;;;2.10;1.55;;;;;;;;;;5482621;26;20010;-67
2024/04/18 00:56:33;;;;;;;3.47;1.48;;;;;;;;;;5483155;26;20056;-67
2024/04/18 00:59:01;;;;;;;2.05;1.67;;;;;;;;;;5474239;26;20013;-67
2024/04/18 01:01:32;;;;;;;2.40;1.60;;;;;;;;;;5481176;26;19998;-67
2024/04/18 01:03:59;;;;;;;2.35;1.58;;;;;;;;;;5489225;26;20014;-67
2024/04/18 01:06:32;;;;;;;1.70;1.60;;;;;;;;;;5494065;26;20075;-67
2024/04/18 01:09:01;;;;;;;1.88;1.50;;;;;;;;;;5499748;26;19997;-67
2024/04/18 01:11:31;;;;;;;1.83;1.70;;;;;;;;;;5486880;26;20009;-67
2024/04/18 01:13:59;;;;;;;3.63;2.00;;;;;;;;;;5483931;26;20376;-67
2024/04/18 01:16:29;;;;;;;3.70;1.80;;;;;;;;;;5483890;26;19998;-67
2024/04/18 01:18:57;;;;;;;2.63;1.55;;;;;;;;;;5484294;26;20002;-67
2024/04/18 01:21:27;;;;;;;2.80;1.80;;;;;;;;;;5486882;26;20042;-68
2024/04/18 01:23:57;;;;;;;2.53;1.70;;;;;;;;;;5494693;26;19997;-67
2024/04/18 01:26:30;;;;;;;2.05;1.83;;;;;;;;;;5484340;26;20443;-66
2024/04/18 01:28:57;;;;;;;1.95;1.58;;;;;;;;;;5487274;26;20070;-67
2024/04/18 01:31:27;;;;;;;2.75;1.73;;;;;;;;;;5483627;26;20452;-67
2024/04/18 01:33:57;;;;;;;2.28;1.83;;;;;;;;;;5480771;26;20006;-67
2024/04/18 01:36:27;;;;;;;1.73;1.60;;;;;;;;;;5490398;26;20002;-66
2024/04/18 01:38:55;;;;;;;2.20;1.52;;;;;;;;;;5483197;26;20002;-66
2024/04/18 01:41:25;;;;;;;1.60;1.50;;;;;;;;;;5484103;26;19998;-67
2024/04/18 01:43:55;;;;;;;3.08;2.10;;;;;;;;;;5482492;26;20006;-67
2024/04/18 01:46:25;;;;;;;2.45;1.83;;;;;;;;;;5474691;26;20002;-67
2024/04/18 01:48:53;;;;;;;2.75;1.45;;;;;;;;;;5484115;26;20006;-67
2024/04/18 01:51:23;;;;;;;2.70;2.10;;;;;;;;;;5484358;26;19998;-66
2024/04/18 01:53:50;;;;;;;3.22;2.30;;;;;;;;;;5490104;26;20372;-67
2024/04/18 01:56:21;;;;;;;2.33;1.80;;;;;;;;;;5491746;26;20346;-67
2024/04/18 01:58:48;;;;;;;3.00;1.85;;;;;;;;;;5480488;26;20002;-67
2024/04/18 02:01:24;;;;;;;2.13;1.90;;;;;;;;;;5486442;26;20002;-67
2024/04/18 02:03:52;;;;;;;2.10;1.77;;;;;;;;;;5484816;26;20456;-66
2024/04/18 02:06:22;;;;;;;2.05;1.80;;;;;;;;;;5482672;26;20042;-67
2024/04/18 02:08:50;;;;;;;2.40;1.95;;;;;;;;;;5482971;26;20026;-67
2024/04/18 02:11:20;;;;;;;2.30;1.80;;;;;;;;;;5489981;26;20335;-67
2024/04/18 02:13:48;;;;;;;3.28;2.00;;;;;;;;;;5498302;26;20020;-67
2024/04/18 02:16:18;;;;;;;3.05;1.90;;;;;;;;;;5486422;26;20017;-67
2024/04/18 02:18:48;;;;;;;2.33;1.90;;;;;;;;;;5483936;26;20013;-66
2024/04/18 02:21:18;;;;;;;2.42;2.08;;;;;;;;;;5493581;26;20086;-66
2024/04/18 02:23:46;;;;;;;5.95;2.10;;;;;;;;;;5478446;26;20002;-67
2024/04/18 02:26:16;;;;;;;2.85;2.13;;;;;;;;;;5485471;26;20447;-67
2024/04/18 02:28:44;;;;;;;2.53;2.00;;;;;;;;;;5494295;26;20013;-67
2024/04/18 02:31:14;;;;;;;2.08;1.88;;;;;;;;;;5506164;26;20001;-67
2024/04/18 02:33:41;;;;;;;2.33;2.03;;;;;;;;;;5497362;26;20016;-67
2024/04/18 02:36:14;;;;;;;2.25;2.05;;;;;;;;;;5503163;26;20012;-67
2024/04/18 02:38:42;;;;;;;3.05;1.98;;;;;;;;;;5505775;26;20078;-67
2024/04/18 02:41:12;;;;;;;2.30;2.10;;;;;;;;;;5483244;26;20017;-67
2024/04/18 02:43:39;;;;;;;2.95;2.22;;;;;;;;;;5489778;26;20017;-67
2024/04/18 02:46:09;;;;;;;4.90;2.30;;;;;;;;;;5450024;26;19998;-67
2024/04/18 02:48:38;;;;;;;2.45;1.92;;;;;;;;;;5472493;26;20002;-67
2024/04/18 02:51:09;;;;;;;2.90;2.30;;;;;;;;;;5471222;26;20026;-67
2024/04/18 02:53:39;;;;;;;2.72;2.22;;;;;;;;;;5488727;26;20333;-67
2024/04/18 02:56:09;;;;;;;4.20;2.35;;;;;;;;;;5484220;26;20009;-67
2024/04/18 02:58:37;;;;;;;3.38;2.42;;;;;;;;;;5482859;26;20025;-67
2024/04/18 03:01:07;;;;;;;2.38;1.98;;;;;;;;;;5483545;26;20009;-67
2024/04/18 03:03:35;;;;;;;4.43;2.50;;;;;;;;;;5476597;26;20011;-67
2024/04/18 03:06:05;;;;;;;4.20;2.70;;;;;;;;;;5473880;26;19998;-67
2024/04/18 03:08:32;;;;;;;5.68;2.88;;;;;;;;;;5480966;26;20002;-67
2024/04/18 03:11:05;;;;;;;3.28;2.47;;;;;;;;;;5482455;26;20463;-68
2024/04/18 03:13:33;;;;;;;2.85;2.33;;;;;;;;;;5466206;26;20553;-67
2024/04/18 03:16:03;;;;;;;3.75;2.17;;;;;;;;;;5483291;26;20409;-67
2024/04/18 03:18:30;;;;;;;3.80;2.80;;;;;;;;;;5489455;26;20002;-66
2024/04/18 03:21:01;;;;;;;3.30;2.40;;;;;;;;;;5483100;26;19998;-69
2024/04/18 03:23:28;;;;;;;3.90;2.63;;;;;;;;;;5484824;26;20207;-67
2024/04/18 03:25:58;;;;;;;5.82;2.95;;;;;;;;;;5482375;26;20438;-68
2024/04/18 03:28:28;;;;;;;4.35;2.53;;;;;;;;;;5500061;26;20013;-66
2024/04/18 03:30:58;;;;;;;3.47;2.55;;;;;;;;;;5482831;26;20327;-66
2024/04/18 03:33:26;;;;;;;3.25;2.50;;;;;;;;;;5482782;26;20003;-67
2024/04/18 03:35:56;;;;;;;4.72;2.80;;;;;;;;;;5481890;26;20386;-67
2024/04/18 03:38:26;;;;;;;3.10;2.50;;;;;;;;;;5485568;26;20006;-67
2024/04/18 03:40:58;;;;;;;3.40;2.63;;;;;;;;;;5487070;26;20009;-68
2024/04/18 03:43:28;;;;;;;2.97;2.47;;;;;;;;;;5496373;26;20039;-66
2024/04/18 03:46:02;;;;;;;5.82;2.60;;;;;;;;;;5477865;26;20013;-67
2024/04/18 03:48:32;;;;;;;4.20;2.80;;;;;;;;;;5481785;26;20034;-67
2024/04/18 03:51:00;;;;;;;4.60;2.80;;;;;;;;;;5480401;26;20082;-67
2024/04/18 03:53:30;;;;;;;4.03;2.47;;;;;;;;;;5482761;26;20002;-65
2024/04/18 03:55:57;;;;;;;3.28;2.42;;;;;;;;;;5486016;26;20009;-66
2024/04/18 03:58:27;;;;;;;4.07;2.40;;;;;;;;;;5482682;26;20468;-68
2024/04/18 04:00:55;;;;;;;3.92;2.67;;;;;;;;;;5471451;26;19998;-66
2024/04/18 04:03:28;;;;;;;3.83;2.90;;;;;;;;;;5488971;26;20010;-64
2024/04/18 04:05:55;;;;;;;5.32;3.00;;;;;;;;;;5483024;26;20075;-64
2024/04/18 04:08:26;;;;;;;4.72;2.70;;;;;;;;;;5492722;26;20485;-65
2024/04/18 04:10:53;;;;;;;4.43;2.60;;;;;;;;;;5492758;26;20002;-65
2024/04/18 04:13:23;;;;;;;3.83;2.60;;;;;;;;;;5493398;26;20024;-66
2024/04/18 04:15:51;;;;;;;4.45;2.85;;;;;;;;;;5486030;26;20804;-64
2024/04/18 04:18:23;;;;;;;3.88;2.65;;;;;;;;;;5502840;26;20078;-64
2024/04/18 04:20:53;;;;;;;5.22;3.20;;;;;;;;;;5485281;26;20002;-64
2024/04/18 04:23:23;;;;;;;3.47;2.70;;;;;;;;;;5485762;26;20014;-64
2024/04/18 04:25:51;;;;;;;3.63;2.78;;;;;;;;;;5502401;26;20010;-65
2024/04/18 04:28:21;;;;;;;4.93;2.90;;;;;;;;;;5485029;26;20003;-64
2024/04/18 04:30:49;;;;;;;4.75;3.20;;;;;;;;;;5498466;26;19999;-63
2024/04/18 04:33:19;;;;;;;4.20;2.97;;;;;;;;;;5486053;26;20014;-63
2024/04/18 04:35:47;;;;;;;4.60;3.38;;;;;;;;;;5490732;26;20005;-63
2024/04/18 04:38:20;;;;;;;4.47;3.30;;;;;;;;;;5491009;26;20017;-65
2024/04/18 04:40:47;;;;;;;3.67;3.15;;;;;;;;;;5482732;26;20012;-64
2024/04/18 04:43:17;;;;;;;3.85;3.10;;;;;;;;;;5485247;26;20359;-64
2024/04/18 04:45:45;;;;;;;3.85;2.92;;;;;;;;;;5489343;26;20036;-64
2024/04/18 04:48:15;;;;;;;4.35;3.25;;;;;;;;;;5476946;26;20002;-63
2024/04/18 04:50:44;;;;;;;4.65;3.10;;;;;;;;;;5492893;26;20713;-65
2024/04/18 04:53:14;;;;;;;3.65;2.70;;;;;;;;;;5486223;26;20387;-65
2024/04/18 04:55:44;;;;;;;3.95;2.78;;;;;;;;;;5488577;26;20088;-63
2024/04/18 04:58:14;;;;;;;4.60;2.72;;;;;;;;;;5482129;26;20096;-63
2024/04/18 05:00:42;;;;;;;3.53;2.85;;;;;;;;;;5489587;26;20006;-64
2024/04/18 05:03:12;;;;;;;4.50;3.20;;;;;;;;;;5501218;26;20038;-65
2024/04/18 05:05:41;;;;;;;3.58;2.67;;;;;;;;;;5499806;26;20012;-64
2024/04/18 05:08:11;;;;;;;3.45;2.67;;;;;;;;;;5483121;26;20016;-64
2024/04/18 05:10:40;;;;;;;4.40;3.17;;;;;;;;;;5484685;26;20002;-62
2024/04/18 05:13:13;;;;;;;3.22;2.60;;;;;;;;;;5485045;26;20325;-65
2024/04/18 05:15:40;;;;;;;4.45;3.00;;;;;;;;;;5492239;26;20009;-64
2024/04/18 05:18:12;;;;;;;3.63;2.88;;;;;;;;;;5481943;26;20077;-65
2024/04/18 05:20:39;;;;;;;6.13;2.88;;;;;;;;;;5483671;26;19998;-66
2024/04/18 05:23:09;;;;;;;7.38;3.50;;;;;;;;;;5483324;26;20043;-65
2024/04/18 05:25:38;;;;;;;4.32;2.92;;;;;;;;;;5484845;26;19998;-67
2024/04/18 05:28:19;;;;;;;3.63;2.72;;;;;;;;;;5492550;26;20001;-65
2024/04/18 05:31:03;;;;;;;4.25;2.90;;;;;;;;;;5485164;26;20013;-65
2024/04/18 05:33:33;;;;;;;5.78;2.92;;;;;;;;;;5501181;26;19997;-65
2024/04/18 05:36:04;;;;;;;4.20;3.17;;;;;;;;;;5490243;26;20001;-66
2024/04/18 05:38:34;;;;;;;4.15;2.80;;;;;;;;;;5476948;26;20002;-65
2024/04/18 05:41:04;;;;;;;4.57;3.45;;;;;;;;;;5484553;26;19998;-66
2024/04/18 05:43:34;;;;;;;3.80;2.88;;;;;;;;;;5485434;26;19998;-65
2024/04/18 05:46:07;;;;;;;5.03;2.70;;;;;;;;;;5465462;26;20014;-65
2024/04/18 05:48:38;;;;;;;4.45;2.55;;;;;;;;;;5481084;26;20009;-65
2024/04/18 05:51:08;;;;;;;3.00;2.40;;;;;;;;;;5485197;26;20383;-65
2024/04/18 05:53:35;;;;;;;3.90;2.70;;;;;;;;;;5476664;26;20074;-66
2024/04/18 05:56:05;;;;;;;3.53;2.97;;;;;;;;;;5457886;26;20026;-69
2024/04/18 05:58:36;;;;;;;4.57;2.92;;;;;;;;;;5482153;26;20013;-67
2024/04/18 06:01:09;;;;;;;3.38;2.50;;;;;;;;;;5498302;26;20002;-67
2024/04/18 06:03:40;;;;;;;3.22;2.78;;;;;;;;;;5468762;26;19998;-65
2024/04/18 06:06:10;;;;;;;4.53;2.88;;;;;;;;;;5473526;26;20099;-64
2024/04/18 06:08:40;;;;;;;4.32;2.70;;;;;;;;;;5481251;26;19998;-64
2024/04/18 06:11:10;;;;;;;3.78;2.55;;;;;;;;;;5499922;26;20006;-64
2024/04/18 06:13:41;;;;;;;2.97;2.40;;;;;;;;;;5505555;26;20434;-64
2024/04/18 06:16:13;;;;;;;4.68;3.17;;;;;;;;;;5484428;26;20352;-67
2024/04/18 06:18:44;;;;;;;3.78;3.00;;;;;;;;;;5472125;26;20014;-65
2024/04/18 06:21:15;;;;;;;4.20;2.50;;;;;;;;;;5481812;26;20013;-63
2024/04/18 06:23:45;;;;;;;2.90;2.25;;;;;;;;;;5499842;26;20438;-64
2024/04/18 06:26:15;;;;;;;2.75;1.83;;;;;;;;;;5458515;26;19998;-62
2024/04/18 06:28:46;;;;;;;1.73;1.55;;;;;;;;;;5451571;26;20409;-63
2024/04/18 06:31:19;;;;;;;1.55;1.40;;;;;;;;;;5462013;26;20467;-63
2024/04/18 06:33:49;;;;;;;1.50;1.40;;;;;;;;;;5464562;26;19998;-62
2024/04/18 06:36:19;;;;;;;2.00;1.40;;;;;;;;;;5447843;26;20079;-65
2024/04/18 06:38:49;;;;;;;1.98;1.50;;;;;;;;;;5465139;26;20065;-64
2024/04/18 06:41:20;;;;;;;2.63;1.90;;;;;;;;;;5442564;26;20075;-62
2024/04/18 06:43:50;;;;;;;2.50;1.70;;;;;;;;;;5456938;26;20015;-63
2024/04/18 06:46:22;;;;;;;2.03;1.70;;;;;;;;;;5428383;26;20007;-64
2024/04/18 06:48:53;;;;;;;3.50;2.03;;;;;;;;;;5444211;26;20323;-63
2024/04/18 06:51:23;;;;;;;2.58;2.03;;;;;;;;;;5430488;26;20018;-64
2024/04/18 06:53:53;;;;;;;2.42;1.83;;;;;;;;;;5447599;26;20005;-64
2024/04/18 06:56:23;;;;;;;2.22;1.80;;;;;;;;;;5458106;26;20436;-63
2024/04/18 06:58:53;;;;;;;3.10;1.80;;;;;;;;;;5449492;26;19999;-65
2024/04/18 07:01:26;;;;;;;1.70;1.60;;;;;;;;;;5439507;26;20002;-63
2024/04/18 07:03:57;;;;;;;2.00;1.80;;;;;;;;;;5446315;26;19999;-65
2024/04/18 07:06:27;;;;;;;2.30;2.00;;;;;;;;;;5444874;26;20054;-64
2024/04/18 07:08:57;;;;;;;3.03;2.25;;;;;;;;;;5463227;26;20014;-64
2024/04/18 07:11:27;;;;;;;3.33;2.45;;;;;;;;;;5446439;26;20006;-63
2024/04/18 07:13:57;;;;;;;5.82;3.03;;;;;;;;;;5447177;26;20014;-63
2024/04/18 07:16:30;;;;;;;4.35;2.97;;;;;;;;;;5443855;26;20022;-65
2024/04/18 07:19:00;;;;;;;5.63;3.08;;;;;;;;;;5458015;26;20011;-63
2024/04/18 07:21:30;;;;;;;4.35;3.08;;;;;;;;;;5447130;26;20018;-63
2024/04/18 07:24:00;;;;;;;5.40;3.08;;;;;;;;;;5435983;26;20014;-63
2024/04/18 07:26:31;;;;;;;4.65;3.17;;;;;;;;;;5435263;26;20461;-64
2024/04/18 07:29:03;;;;;;;3.80;3.20;;;;;;;;;;5438162;26;19994;-63
2024/04/18 07:31:37;;;;;;;4.80;3.22;;;;;;;;;;5428188;26;20029;-65
2024/04/18 07:34:07;;;;;;;6.15;3.25;;;;;;;;;;5442689;26;20010;-64
2024/04/18 07:36:37;;;;;;;5.03;3.20;;;;;;;;;;5446125;26;20007;-62
2024/04/18 07:39:07;;;;;;;4.78;3.53;;;;;;;;;;5442878;26;20008;-63
2024/04/18 07:41:37;;;;;;;4.82;3.30;;;;;;;;;;5429396;26;20042;-64
2024/04/18 07:44:09;;;;;;;5.03;3.55;;;;;;;;;;5448326;26;20014;-63
2024/04/18 07:46:44;;;;;;;6.35;3.78;;;;;;;;;;5425687;26;20479;-65
2024/04/18 07:49:14;;;;;;;4.65;3.17;;;;;;;;;;5446058;26;20374;-64
2024/04/18 07:51:44;;;;;;;3.83;3.10;;;;;;;;;;5447045;26;20007;-64
2024/04/18 07:54:15;;;;;;;4.43;3.13;;;;;;;;;;5447219;26;20841;-63
2024/04/18 07:56:46;;;;;;;3.95;3.17;;;;;;;;;;5446665;26;20018;-64
2024/04/18 07:59:16;;;;;;;4.70;3.63;;;;;;;;;;5446376;26;20075;-65
2024/04/18 08:01:51;;;;;;;3.72;3.28;;;;;;;;;;5446395;26;20015;-65
2024/04/18 08:04:22;;;;;;;5.07;3.33;;;;;;;;;;5446109;26;20017;-64
2024/04/18 08:07:13;;;;;;;6.35;3.67;;;;;;;;;;5437454;26;20011;-65
2024/04/18 08:09:47;;;;;;;5.28;3.45;;;;;;;;;;5446414;26;20068;-64
2024/04/18 08:12:22;;;;;;;4.93;3.25;;;;;;;;;;5445892;26;20007;-64
2024/04/18 08:14:59;;;;;;;5.93;3.50;;;;;;;;;;5446794;26;20026;-64
2024/04/18 08:17:39;;;;;;;6.53;3.95;;;;;;;;;;5446245;26;20007;-65
2024/04/18 08:20:10;;;;;;;3.55;2.58;;;;;;;;;;5445499;26;19995;-65
2024/04/18 08:22:40;;;;;;;6.05;3.17;;;;;;;;;;5435586;26;20080;-66
2024/04/18 08:25:11;;;;;;;5.82;3.50;;;;;;;;;;5468814;26;20014;-64
2024/04/18 08:27:41;;;;;;;4.28;3.00;;;;;;;;;;5481157;26;20014;-65
2024/04/18 08:30:11;;;;;;;5.50;3.20;;;;;;;;;;5480843;26;20014;-65
2024/04/18 08:32:44;;;;;;;5.15;3.03;;;;;;;;;;5495104;26;20002;-66
2024/04/18 08:35:16;;;;;;;4.03;2.92;;;;;;;;;;5498316;26;20030;-65
2024/04/18 08:37:46;;;;;;;3.80;2.83;;;;;;;;;;5488396;26;20455;-65
2024/04/18 08:40:16;;;;;;;3.50;2.40;;;;;;;;;;5503514;26;19999;-67
2024/04/18 08:42:48;;;;;;;2.90;2.60;;;;;;;;;;5507871;26;20001;-65
2024/04/18 08:45:18;;;;;;;3.20;2.20;;;;;;;;;;5497956;26;20002;-67
2024/04/18 08:47:51;;;;;;;2.90;2.10;;;;;;;;;;5470063;26;20327;-66
2024/04/18 08:50:22;;;;;;;2.30;1.90;;;;;;;;;;5485802;26;20002;-66
2024/04/18 08:52:53;;;;;;;2.65;2.13;;;;;;;;;;5485337;26;20422;-67
2024/04/18 08:55:24;;;;;;;2.65;2.00;;;;;;;;;;5497811;26;20063;-67
2024/04/18 08:57:58;;;;;;;3.08;2.33;;;;;;;;;;5503084;26;20014;-67
2024/04/18 09:00:28;;;;;;;2.90;2.40;;;;;;;;;;5508525;26;20013;-66
2024/04/18 09:03:01;;;;;;;2.55;1.98;;;;;;;;;;5481851;26;20002;-66
2024/04/18 09:05:32;;;;;;;5.13;2.40;;;;;;;;;;5509073;26;20030;-65
2024/04/18 09:08:04;;;;;;;3.15;2.40;;;;;;;;;;5382646;26;20145;-66
2024/04/18 09:10:34;;;;;;;4.82;3.00;;;;;;;;;;5482557;26;20451;-64
2024/04/18 09:13:04;;;;;;;3.15;2.45;;;;;;;;;;5492761;26;20451;-64
2024/04/18 09:15:34;;;;;;;3.97;2.80;;;;;;;;;;5512343;26;20001;-66
2024/04/18 09:18:07;;;;;;;4.72;2.58;;;;;;;;;;5488408;26;20010;-65
2024/04/18 09:20:39;;;;;;;6.57;3.47;;;;;;;;;;5503302;25;20442;-64
2024/04/18 09:23:09;;;;;;;3.83;2.90;;;;;;;;;;5503451;26;20290;-64
2024/04/18 09:25:39;;;;;;;6.40;2.97;;;;;;;;;;5476367;26;20325;-63
2024/04/18 09:28:14;;;;;;;3.90;2.35;;;;;;;;;;5449238;26;20006;-65
2024/04/18 09:30:44;;;;;;;2.72;2.40;;;;;;;;;;5461701;26;20214;-66
2024/04/18 09:33:17;;;;;;;2.72;2.10;;;;;;;;;;5433563;26;20073;-64
2024/04/18 09:35:50;;;;;;;1.83;1.50;;;;;;;;;;5463602;26;20455;-65
2024/04/18 09:38:20;;;;;;;1.30;1.20;;;;;;;;;;5457087;26;20010;-65
2024/04/18 09:40:54;;;;;;;1.70;1.45;;;;;;;;;;5464454;26;20077;-65
2024/04/18 09:43:26;;;;;;;2.67;1.60;;;;;;;;;;5451737;26;20392;-65
2024/04/18 09:46:01;;;;;;;1.88;1.30;;;;;;;;;;5431565;26;20003;-66
2024/04/18 09:48:34;;;;;;;2.85;2.05;;;;;;;;;;5444799;26;20015;-65
2024/04/18 09:51:05;;;;;;;2.70;1.95;;;;;;;;;;5433631;26;20007;-65
2024/04/18 09:53:35;;;;;;;2.90;2.17;;;;;;;;;;5447723;26;20003;-64
2024/04/18 09:56:06;;;;;;;2.95;2.55;;;;;;;;;;5448211;26;20018;-65
2024/04/18 09:58:38;;;;;;;3.15;2.20;;;;;;;;;;5448483;26;19999;-64
2024/04/18 10:01:09;;;;;;;4.32;2.67;;;;;;;;;;5449443;26;20036;-64
2024/04/18 10:03:42;;;;;;;3.20;2.40;;;;;;;;;;5447141;26;20693;-64
2024/04/18 10:06:13;;;;;;;3.38;2.65;;;;;;;;;;5447253;26;20007;-65
2024/04/18 10:08:46;;;;;;;3.80;2.80;;;;;;;;;;5446523;26;19995;-64
2024/04/18 10:11:16;;;;;;;2.80;2.20;;;;;;;;;;5449448;26;20002;-65
2024/04/18 10:13:47;;;;;;;3.05;2.38;;;;;;;;;;5448056;26;20076;-63
2024/04/18 10:16:17;;;;;;;2.97;1.83;;;;;;;;;;5446940;26;20002;-64
2024/04/18 10:18:50;;;;;;;2.25;1.60;;;;;;;;;;5447697;26;20010;-64
2024/04/18 10:21:28;;;;;;;2.78;1.90;;;;;;;;;;5443595;26;20003;-64
2024/04/18 10:24:12;;;;;;;1.55;1.45;;;;;;;;;;5464538;26;20002;-64
2024/04/18 10:26:42;;;;;;;1.90;1.52;;;;;;;;;;5456758;26;20507;-65
2024/04/18 10:29:26;;;;;;;2.92;2.13;;;;;;;;;;5457051;26;20057;-66
2024/04/18 10:31:57;;;;;;;2.40;1.58;;;;;;;;;;5459290;26;20007;-64
2024/04/18 10:34:30;;;;;;;2.95;1.80;;;;;;;;;;5451997;26;20075;-65
2024/04/18 10:37:05;;;;;;;5.25;1.98;;;;;;;;;;5457639;26;20002;-64
2024/04/18 10:39:37;;;;;;;3.80;2.28;;;;;;;;;;5447760;26;19998;-65
2024/04/18 10:42:09;;;;;;;2.70;1.98;;;;;;;;;;5466029;26;20471;-63
2024/04/18 10:44:37;;;;;;;4.00;2.22;;;;;;;;;;5438568;26;20002;-63
2024/04/18 10:47:07;;;;;;;2.83;2.47;;;;;;;;;;5426853;26;20380;-66
2024/04/18 10:49:40;;;;;;;3.30;2.35;;;;;;;;;;5447288;26;19995;-66
2024/04/18 10:52:10;;;;;;;3.55;2.65;;;;;;;;;;5448991;26;20445;-64
2024/04/18 10:54:41;;;;;;;3.97;2.67;;;;;;;;;;5441769;26;20004;-64
2024/04/18 10:57:11;;;;;;;3.50;2.78;;;;;;;;;;5438320;26;20003;-65
2024/04/18 10:59:43;;;;;;;2.88;2.47;;;;;;;;;;5446762;26;20456;-67
2024/04/18 11:02:13;;;;;;;3.00;2.22;;;;;;;;;;5447663;26;20442;-66
2024/04/18 11:04:46;;;;;;;3.88;2.90;;;;;;;;;;5443774;26;20075;-65
2024/04/18 11:07:16;;;;;;;3.15;2.50;;;;;;;;;;5431871;26;20011;-66
2024/04/18 11:09:47;;;;;;;3.70;2.40;;;;;;;;;;5457535;26;19994;-65
2024/04/18 11:12:18;;;;;;;3.20;2.28;;;;;;;;;;5434927;26;20018;-65
2024/04/18 11:14:50;;;;;;;2.67;1.95;;;;;;;;;;5449492;26;20010;-65
2024/04/18 11:17:20;;;;;;;2.05;1.70;;;;;;;;;;5439419;26;20452;-65
2024/04/18 11:19:56;;;;;;;2.80;1.98;;;;;;;;;;5451186;26;20075;-65
2024/04/18 11:22:28;;;;;;;2.10;1.88;;;;;;;;;;5431865;26;20352;-65
2024/04/18 11:24:59;;;;;;;2.40;1.92;;;;;;;;;;5447083;26;19995;-64
2024/04/18 11:27:29;;;;;;;2.47;1.88;;;;;;;;;;5446926;26;20010;-64
2024/04/18 11:30:01;;;;;;;3.53;1.85;;;;;;;;;;5446232;26;20042;-65
2024/04/18 11:32:31;;;;;;;2.03;1.80;;;;;;;;;;5432319;26;20071;-65
2024/04/18 11:35:05;;;;;;;2.35;1.65;;;;;;;;;;5446675;26;20397;-65
2024/04/18 11:37:48;;;;;;;2.35;1.95;;;;;;;;;;5446866;26;20054;-65
2024/04/18 11:40:16;;;;;;;1.75;1.50;;;;;;;;;;5442954;26;19999;-65
2024/04/18 11:42:46;;;;;;;2.83;1.90;;;;;;;;;;5447382;26;20220;-65
2024/04/18 11:45:16;;;;;;;2.97;2.45;;;;;;;;;;5455725;26;20383;-66
2024/04/18 11:47:44;;;;;;;2.53;2.17;;;;;;;;;;5425527;26;20007;-65
2024/04/18 11:50:17;;;;;;;2.40;1.77;;;;;;;;;;5433217;26;19998;-66
2024/04/18 11:52:47;;;;;;;3.30;2.03;;;;;;;;;;5433133;26;20007;-65
2024/04/18 11:55:17;;;;;;;2.25;1.92;;;;;;;;;;5430513;26;20329;-66
2024/04/18 11:57:47;;;;;;;2.00;1.80;;;;;;;;;;5446397;26;20013;-67
2024/04/18 12:00:17;;;;;;;2.17;1.80;;;;;;;;;;5448022;26;20010;-66
2024/04/18 12:02:47;;;;;;;2.00;1.80;;;;;;;;;;5440800;26;20034;-66
2024/04/18 12:05:20;;;;;;;1.80;1.70;;;;;;;;;;5441767;26;20003;-66
2024/04/18 12:07:51;;;;;;;1.95;1.63;;;;;;;;;;5444350;26;20464;-66
2024/04/18 12:10:21;;;;;;;1.45;1.30;;;;;;;;;;5443442;26;20398;-66
2024/04/18 12:12:51;;;;;;;1.88;1.30;;;;;;;;;;5441739;26;20006;-65
2024/04/18 12:15:23;;;;;;;2.40;1.30;;;;;;;;;;5448291;26;20076;-65
2024/04/18 12:17:53;;;;;;;2.05;1.05;;;;;;;;;;5434143;26;20079;-65
2024/04/18 12:20:26;;;;;;;0.80;0.80;;;;;;;;;;5446379;26;20444;-66
2024/04/18 12:22:56;;;;;;;1.08;1.00;;;;;;;;;;5446597;26;20431;-66
2024/04/18 12:25:27;;;;;;;1.48;1.30;;;;;;;;;;5457482;26;20002;-65
2024/04/18 12:27:57;;;;;;;1.83;1.08;;;;;;;;;;5477494;26;20082;-66
2024/04/18 12:30:27;;;;;;;1.52;1.10;;;;;;;;;;5485590;26;20018;-67
2024/04/18 12:32:59;;;;;;;1.15;0.90;;;;;;;;;;5485147;26;20017;-67
2024/04/18 12:35:32;;;;;;;2.90;1.15;;;;;;;;;;5486597;26;19998;-66
2024/04/18 12:38:02;;;;;;;1.10;1.00;;;;;;;;;;5452098;26;20339;-66
2024/04/18 12:40:32;;;;;;;0.98;0.90;;;;;;;;;;5486162;26;20535;-65
2024/04/18 12:43:03;;;;;;;1.23;1.13;;;;;;;;;;5484957;26;20471;-65
2024/04/18 12:45:33;;;;;;;1.20;1.10;;;;;;;;;;5478996;26;20026;-65
2024/04/18 12:48:05;;;;;;;1.15;1.02;;;;;;;;;;5479001;26;19998;-65
2024/04/18 12:50:38;;;;;;;2.13;1.23;;;;;;;;;;5483610;26;20002;-68
2024/04/18 12:53:09;;;;;;;1.25;0.88;;;;;;;;;;5485602;26;20071;-65
2024/04/18 12:55:39;;;;;;;1.27;1.15;;;;;;;;;;5500250;26;20539;-67
2024/04/18 12:58:09;;;;;;;2.03;1.20;;;;;;;;;;5495089;26;19998;-67
2024/04/18 13:00:39;;;;;;;1.30;1.13;;;;;;;;;;5496197;26;20001;-66
2024/04/18 13:03:10;;;;;;;1.45;1.25;;;;;;;;;;5489211;26;19998;-67
2024/04/18 13:05:43;;;;;;;2.67;1.20;;;;;;;;;;5469412;26;20351;-68
2024/04/18 13:08:13;;;;;;;2.22;1.15;;;;;;;;;;5482039;26;20016;-67
2024/04/18 13:10:43;;;;;;;1.40;1.00;;;;;;;;;;5473665;26;20002;-67
2024/04/18 13:13:14;;;;;;;2.13;1.00;;;;;;;;;;5487164;26;20024;-68
2024/04/18 13:15:44;;;;;;;0.90;0.85;;;;;;;;;;5485215;26;20548;-68
2024/04/18 13:18:18;;;;;;;0.77;0.77;;;;;;;;;;5477933;26;20010;-68
2024/04/18 13:20:51;;;;;;;0.73;0.73;;;;;;;;;;5484601;26;20017;-67
2024/04/18 13:23:21;;;;;;;2.13;1.05;;;;;;;;;;5486538;26;20021;-67
2024/04/18 13:25:53;;;;;;;1.23;1.00;;;;;;;;;;5484341;26;20524;-68
2024/04/18 13:28:23;;;;;;;2.05;1.10;;;;;;;;;;5485251;26;20006;-68
2024/04/18 13:30:53;;;;;;;1.08;0.90;;;;;;;;;;5486237;26;20074;-69
2024/04/18 13:33:24;;;;;;;1.48;0.98;;;;;;;;;;5485932;26;20013;-68
2024/04/18 13:35:57;;;;;;;1.02;0.98;;;;;;;;;;5485661;26;20020;-68
2024/04/18 13:38:27;;;;;;;2.15;1.20;;;;;;;;;;5486182;26;19998;-68
2024/04/18 13:40:58;;;;;;;1.20;1.10;;;;;;;;;;5485001;26;20002;-69
2024/04/18 13:43:25;;;;;;;1.02;1.00;;;;;;;;;;5485474;26;20014;-68
2024/04/18 13:45:55;;;;;;;1.10;1.00;;;;;;;;;;5483374;26;20021;-68
2024/04/18 13:48:29;;;;;;;1.15;1.05;;;;;;;;;;5486149;26;20010;-67
2024/04/18 13:51:02;;;;;;;1.15;1.00;;;;;;;;;;5485089;26;20726;-67
2024/04/18 13:53:32;;;;;;;1.35;1.25;;;;;;;;;;5484165;26;19998;-68
2024/04/18 13:56:02;;;;;;;2.25;1.20;;;;;;;;;;5483393;26;20006;-68
2024/04/18 13:58:33;;;;;;;1.52;1.38;;;;;;;;;;5484986;26;20010;-67
2024/04/18 14:01:03;;;;;;;1.50;1.33;;;;;;;;;;5484368;26;20439;-67
2024/04/18 14:03:33;;;;;;;1.58;1.40;;;;;;;;;;5483995;26;20380;-68
2024/04/18 14:06:08;;;;;;;2.50;1.83;;;;;;;;;;5483206;26;20445;-69
2024/04/18 14:08:36;;;;;;;;;;;;;;;;;;5472530;26;20017;-68
2024/04/18 14:11:06;;;;;;;3.05;2.10;;;;;;;;;;5484615;26;19924;-68
2024/04/18 14:13:36;;;;;;;1.92;1.73;;;;;;;;;;5484270;26;20082;-68
2024/04/18 14:18:53;;;;;;;2.00;1.60;;;;;;;;;;5482724;26;20026;-68
2024/04/18 14:21:25;;;;;;;2.13;1.88;;;;;;;;;;5484945;26;20450;-68
2024/04/18 14:23:56;;;;;;;3.88;2.17;;;;;;;;;;5484163;26;20005;-69
2024/04/18 14:26:26;;;;;;;2.05;1.00;;;;;;;;;;5482389;26;20010;-68
2024/04/18 14:28:56;;;;;;;2.25;1.00;;;;;;;;;;5481425;26;19998;-68
2024/04/18 14:31:26;;;;;;;0.60;0.60;;;;;;;;;;5476879;26;20106;-71
2024/04/18 14:33:58;;;;;;;1.95;0.80;;;;;;;;;;5481022;26;20016;-68
2024/04/18 14:36:31;;;;;;;0.77;0.77;;;;;;;;;;5469322;26;20450;-69
2024/04/18 14:39:01;;;;;;;0.70;0.70;;;;;;;;;;5479726;26;20001;-69
2024/04/18 14:41:31;;;;;;;0.63;0.63;;;;;;;;;;5481022;26;20006;-68
2024/04/18 14:44:01;;;;;;;0.95;0.82;;;;;;;;;;5481161;26;20074;-68
2024/04/18 14:46:31;;;;;;;1.33;1.13;;;;;;;;;;5480319;26;20081;-68
2024/04/18 14:49:04;;;;;;;0.88;0.80;;;;;;;;;;5475072;26;20009;-68
2024/04/18 14:51:37;;;;;;;0.82;0.82;;;;;;;;;;5473640;26;20002;-69
2024/04/18 14:54:07;;;;;;;2.28;1.20;;;;;;;;;;5472574;26;19994;-70
2024/04/18 14:56:37;;;;;;;0.98;0.88;;;;;;;;;;5474401;26;20037;-68
2024/04/18 14:59:08;;;;;;;0.93;0.90;;;;;;;;;;5481323;26;20082;-68
2024/04/18 15:01:38;;;;;;;0.95;0.90;;;;;;;;;;5478327;26;20010;-68
2024/04/18 15:04:08;;;;;;;1.00;0.90;;;;;;;;;;5480390;26;20370;-68
2024/04/18 15:06:41;;;;;;;1.17;1.08;;;;;;;;;;5472523;26;20002;-68